Time;durP1;ratioP1;P1;durP2;ratioP2;P2;SDS_P1;SDS_P2;PMS_P1;PMS_P2;Temp;Humidity;BMP_temperature;BMP_pressure;BME280_temperature;BME280_humidity;BME280_pressure;Samples;Min_cycle;Max_cycle;Signal;HPM_P1;HPM_P2
2022/06/20 00:02:21;;;;;;;2.50;1.65;;;17.30;99.90;;;;;;6110299;23;20002;-71
2022/06/20 00:04:49;;;;;;;3.78;1.48;;;17.30;99.90;;;;;;6113656;23;20653;-70
2022/06/20 00:07:15;;;;;;;2.45;1.15;;;17.20;99.90;;;;;;6114002;23;20018;-70
2022/06/20 00:09:41;;;;;;;15.88;1.58;;;17.10;99.90;;;;;;6114347;23;20033;-70
2022/06/20 00:12:09;;;;;;;2.13;1.23;;;17.00;99.90;;;;;;6113163;23;20679;-70
2022/06/20 00:14:35;;;;;;;3.83;1.30;;;16.90;99.90;;;;;;6113595;23;20084;-70
2022/06/20 00:17:03;;;;;;;1.92;1.30;;;16.90;99.90;;;;;;6112809;23;20601;-70
2022/06/20 00:19:28;;;;;;;2.28;1.20;;;16.80;99.90;;;;;;6112332;23;20054;-71
2022/06/20 00:21:54;;;;;;;9.30;1.70;;;16.80;99.90;;;;;;6113606;23;20019;-70
2022/06/20 00:24:20;;;;;;;2.33;1.13;;;16.60;99.90;;;;;;6112736;23;20578;-70
2022/06/20 00:26:45;;;;;;;5.88;1.35;;;16.60;99.90;;;;;;6113349;23;20006;-70
2022/06/20 00:29:11;;;;;;;1.73;1.27;;;16.60;99.90;;;;;;6115533;23;20012;-70
2022/06/20 00:31:37;;;;;;;2.58;1.38;;;16.60;99.90;;;;;;6112858;23;20608;-69
2022/06/20 00:34:03;;;;;;;1.65;1.20;;;16.50;99.90;;;;;;6111488;23;20002;-69
2022/06/20 00:36:29;;;;;;;2.40;1.35;;;16.40;99.90;;;;;;6111346;23;20012;-69
2022/06/20 00:38:56;;;;;;;1.55;1.10;;;16.40;99.90;;;;;;6114117;23;20106;-69
2022/06/20 00:41:30;;;;;;;2.13;1.38;;;16.50;99.90;;;;;;6089449;23;20010;-69
2022/06/20 00:43:56;;;;;;;7.78;1.40;;;16.50;99.90;;;;;;6113219;23;20017;-69
2022/06/20 00:46:35;;;;;;;1.20;1.10;;;16.50;99.90;;;;;;6111127;23;20006;-69
2022/06/20 00:49:05;;;;;;;8.10;1.83;;;16.50;99.90;;;;;;6115212;23;20005;-69
2022/06/20 00:51:31;;;;;;;4.25;1.25;;;16.50;99.90;;;;;;6118761;23;20002;-71
2022/06/20 00:54:25;;;;;;;3.40;1.30;;;16.40;99.90;;;;;;6117072;23;20009;-69
2022/06/20 00:57:11;;;;;;;4.97;1.35;;;16.40;99.90;;;;;;6101989;23;20018;-69
2022/06/20 00:59:42;;;;;;;3.13;1.45;;;16.40;99.90;;;;;;6115681;23;20617;-68
2022/06/20 01:02:10;;;;;;;2.30;1.00;;;16.30;99.90;;;;;;6114771;23;20572;-69
2022/06/20 01:04:51;;;;;;;5.15;1.25;;;16.40;99.90;;;;;;6115345;23;20164;-68
2022/06/20 01:07:25;;;;;;;1.52;1.17;;;16.40;99.90;;;;;;6114555;23;20006;-69
2022/06/20 01:09:57;;;;;;;3.22;1.10;;;16.20;99.90;;;;;;6116524;23;20006;-70
2022/06/20 01:12:26;;;;;;;1.98;1.00;;;15.90;99.90;;;;;;6115383;23;20077;-70
2022/06/20 01:14:52;;;;;;;3.35;1.27;;;15.90;99.90;;;;;;6118360;23;20032;-70
2022/06/20 01:17:32;;;;;;;2.28;1.42;;;15.90;99.90;;;;;;6116138;23;20077;-69
2022/06/20 01:20:08;;;;;;;1.98;1.10;;;15.90;99.90;;;;;;6114440;23;20407;-70
2022/06/20 01:22:54;;;;;;;1.88;1.45;;;15.90;99.90;;;;;;6117143;23;20030;-70
2022/06/20 01:26:06;;;;;;;1.27;1.00;;;15.90;99.90;;;;;;6116915;23;20005;-71
2022/06/20 01:28:35;;;;;;;1.97;1.70;;;15.90;99.90;;;;;;6080870;23;20430;-69
2022/06/20 01:31:01;;;;;;;1.92;1.38;;;15.90;99.90;;;;;;6087218;23;20105;-69
2022/06/20 01:33:27;;;;;;;3.88;1.40;;;16.00;99.90;;;;;;6115544;23;20037;-69
2022/06/20 01:38:42;;;;;;;10.38;2.15;;;16.00;99.90;;;;;;6112407;23;20085;-70
2022/06/20 01:43:55;;;;;;;43.47;3.65;;;16.00;99.90;;;;;;6116951;23;20419;-70
2022/06/20 01:46:25;;;;;;;5.43;1.67;;;15.90;99.90;;;;;;6113541;23;20002;-70
2022/06/20 01:48:55;;;;;;;4.05;1.38;;;15.90;99.90;;;;;;6114729;23;20021;-70
2022/06/20 01:51:27;;;;;;;0.90;0.90;;;15.80;99.90;;;;;;6088913;23;20392;-70
2022/06/20 01:53:55;;;;;;;2.88;1.00;;;15.70;99.90;;;;;;6116131;23;20010;-70
2022/06/20 01:56:23;;;;;;;1.50;1.10;;;15.60;99.90;;;;;;6113567;23;20005;-71
2022/06/20 01:59:10;;;;;;;2.85;1.17;;;15.60;99.90;;;;;;6112567;23;20006;-70
2022/06/20 02:01:37;;;;;;;1.20;1.10;;;15.60;99.90;;;;;;6113322;23;20006;-71
2022/06/20 02:04:11;;;;;;;11.23;1.80;;;15.60;99.90;;;;;;6088032;23;20097;-70
2022/06/20 02:06:37;;;;;;;10.75;1.63;;;15.60;99.90;;;;;;6111716;23;20436;-71
2022/06/20 02:09:06;;;;;;;8.80;1.45;;;15.70;99.90;;;;;;6113668;23;20013;-70
2022/06/20 02:11:38;;;;;;;1.30;1.10;;;15.60;99.90;;;;;;6087290;23;20005;-71
2022/06/20 02:14:28;;;;;;;1.25;1.05;;;15.60;99.90;;;;;;6112184;23;20164;-70
2022/06/20 02:17:05;;;;;;;1.45;1.10;;;15.60;99.90;;;;;;6112752;23;20002;-70
2022/06/20 02:19:35;;;;;;;2.38;1.20;;;15.60;99.90;;;;;;6114193;23;20010;-69
2022/06/20 02:22:06;;;;;;;2.15;1.20;;;15.50;99.90;;;;;;6116362;23;20081;-70
2022/06/20 02:24:43;;;;;;;3.58;1.65;;;15.40;99.90;;;;;;6115141;23;20005;-70
2022/06/20 02:27:18;;;;;;;2.38;1.30;;;15.30;99.90;;;;;;6117658;23;20037;-69
2022/06/20 02:29:43;;;;;;;4.85;1.10;;;15.30;99.90;;;;;;6088564;23;20206;-70
2022/06/20 02:32:14;;;;;;;2.90;1.42;;;15.30;99.90;;;;;;6115855;23;20073;-70
2022/06/20 02:34:40;;;;;;;3.97;1.30;;;15.20;99.90;;;;;;6117949;23;20145;-69
2022/06/20 02:37:10;;;;;;;2.75;1.10;;;15.30;99.90;;;;;;6114272;23;20010;-70
2022/06/20 02:39:41;;;;;;;3.42;1.25;;;15.20;99.90;;;;;;6117922;23;20396;-70
2022/06/20 02:42:16;;;;;;;2.78;1.30;;;15.10;99.90;;;;;;6117470;23;20274;-70
2022/06/20 02:44:47;;;;;;;3.28;1.17;;;15.10;99.90;;;;;;6116343;23;20025;-69
2022/06/20 02:47:14;;;;;;;1.45;1.30;;;15.10;99.90;;;;;;6116122;23;20036;-70
2022/06/20 02:49:41;;;;;;;3.53;1.27;;;15.10;99.90;;;;;;6117419;23;20033;-70
2022/06/20 02:52:13;;;;;;;2.70;1.20;;;15.10;99.90;;;;;;6117370;23;20225;-70
2022/06/20 02:54:40;;;;;;;1.63;1.50;;;15.30;99.90;;;;;;6117545;23;20316;-71
2022/06/20 02:57:16;;;;;;;4.32;1.20;;;15.30;99.90;;;;;;6116935;23;20470;-70
2022/06/20 02:59:52;;;;;;;2.55;1.30;;;15.20;99.90;;;;;;6090229;23;20045;-70
2022/06/20 03:02:23;;;;;;;1.52;1.30;;;14.90;99.90;;;;;;6115604;23;20078;-71
2022/06/20 03:04:50;;;;;;;1.77;1.30;;;14.70;99.90;;;;;;6114020;23;20036;-70
2022/06/20 03:07:21;;;;;;;8.38;2.13;;;14.70;99.90;;;;;;6111134;23;20006;-70
2022/06/20 03:09:49;;;;;;;5.50;1.40;;;14.80;99.90;;;;;;6117493;23;20036;-70
2022/06/20 03:12:15;;;;;;;4.40;1.35;;;14.90;99.90;;;;;;6117277;23;20034;-70
2022/06/20 03:14:51;;;;;;;5.22;1.50;;;15.10;99.90;;;;;;6116487;23;20097;-70
2022/06/20 03:17:20;;;;;;;1.90;1.52;;;15.20;99.90;;;;;;6115589;23;20319;-70
2022/06/20 03:19:49;;;;;;;2.30;1.35;;;15.30;99.90;;;;;;6117491;23;20017;-70
2022/06/20 03:22:19;;;;;;;2.40;1.50;;;15.40;99.90;;;;;;6115819;23;20189;-70
2022/06/20 03:24:46;;;;;;;1.58;1.35;;;15.30;99.90;;;;;;6116989;23;20097;-70
2022/06/20 03:27:18;;;;;;;2.85;1.50;;;15.20;99.90;;;;;;6115624;23;20010;-70
2022/06/20 03:29:46;;;;;;;3.03;1.40;;;15.10;99.90;;;;;;6117143;23;20089;-70
2022/06/20 03:32:12;;;;;;;5.53;1.50;;;15.20;99.90;;;;;;6115738;23;20708;-70
2022/06/20 03:34:38;;;;;;;1.70;1.60;;;15.20;99.90;;;;;;6116109;23;20018;-71
2022/06/20 03:37:06;;;;;;;3.47;1.60;;;15.30;99.90;;;;;;6115820;23;20002;-71
2022/06/20 03:39:34;;;;;;;4.47;1.73;;;15.30;99.90;;;;;;6115006;23;20002;-70
2022/06/20 03:42:01;;;;;;;17.15;2.33;;;15.30;99.90;;;;;;6116153;23;20002;-70
2022/06/20 03:44:33;;;;;;;1.67;1.30;;;15.40;99.90;;;;;;6116715;23;20014;-71
2022/06/20 03:47:14;;;;;;;2.10;1.65;;;15.40;99.90;;;;;;6089256;23;19998;-70
2022/06/20 03:50:19;;;;;;;2.33;1.63;;;15.50;99.90;;;;;;6117082;23;20032;-70
2022/06/20 03:52:52;;;;;;;1.85;1.40;;;15.50;99.90;;;;;;6098863;23;20021;-69
2022/06/20 03:55:29;;;;;;;1.88;1.50;;;15.60;99.90;;;;;;6116022;23;20092;-70
2022/06/20 03:58:22;;;;;;;1.42;1.30;;;15.60;99.90;;;;;;6115293;23;20149;-70
2022/06/20 04:01:06;;;;;;;3.03;1.65;;;15.70;99.90;;;;;;6114699;23;20014;-70
2022/06/20 04:03:48;;;;;;;4.07;1.90;;;15.80;99.90;;;;;;6115632;23;20010;-70
2022/06/20 04:06:27;;;;;;;2.47;1.50;;;15.80;99.90;;;;;;6115200;23;20761;-69
2022/06/20 04:12:06;;;;;;;1.83;1.40;;;16.00;99.90;;;;;;6116173;23;20044;-70
2022/06/20 04:14:40;;;;;;;3.42;1.35;;;16.10;99.90;;;;;;6113397;23;20057;-71
2022/06/20 04:20:00;;;;;;;5.55;1.90;;;16.30;99.90;;;;;;6113048;23;20064;-70
2022/06/20 04:22:31;;;;;;;4.97;1.80;;;16.40;99.90;;;;;;6115091;23;20052;-70
2022/06/20 04:25:01;;;;;;;3.15;1.73;;;16.50;99.90;;;;;;6116508;23;20084;-70
2022/06/20 04:27:33;;;;;;;1.73;1.45;;;16.60;99.90;;;;;;6089720;23;20010;-70
2022/06/20 04:30:05;;;;;;;3.28;1.80;;;16.70;99.90;;;;;;6114608;23;20035;-71
2022/06/20 04:32:39;;;;;;;9.33;1.70;;;16.70;99.90;;;;;;6114256;23;20013;-70
2022/06/20 04:35:26;;;;;;;6.10;1.70;;;16.80;99.90;;;;;;6115704;23;20350;-70
2022/06/20 04:38:26;;;;;;;2.28;1.70;;;17.00;99.90;;;;;;6114245;23;20009;-70
2022/06/20 04:40:59;;;;;;;2.97;1.70;;;17.10;99.90;;;;;;6109062;23;20663;-70
2022/06/20 04:43:36;;;;;;;1.85;1.58;;;17.30;99.90;;;;;;6089016;23;20037;-70
2022/06/20 04:46:24;;;;;;;5.82;2.17;;;17.40;99.90;;;;;;6114176;23;20029;-70
2022/06/20 04:48:50;;;;;;;3.67;1.90;;;17.50;99.90;;;;;;6116577;23;20006;-69
2022/06/20 04:51:30;;;;;;;3.85;1.98;;;17.60;99.90;;;;;;6114721;23;20030;-70
2022/06/20 04:53:56;;;;;;;2.83;1.92;;;17.80;99.90;;;;;;6116749;23;20645;-70
2022/06/20 04:56:27;;;;;;;15.77;2.38;;;17.90;99.90;;;;;;6115488;23;20010;-70
2022/06/20 04:59:02;;;;;;;10.70;2.35;;;18.00;99.90;;;;;;6115890;23;20002;-70
2022/06/20 05:01:31;;;;;;;5.47;2.08;;;18.10;99.90;;;;;;6112241;23;20093;-69
2022/06/20 05:04:10;;;;;;;4.85;1.92;;;18.20;99.90;;;;;;6116209;23;20822;-70
2022/06/20 05:06:38;;;;;;;6.53;1.88;;;18.30;99.90;;;;;;6114297;23;20218;-70
2022/06/20 05:09:18;;;;;;;7.68;2.00;;;18.40;99.90;;;;;;6116059;23;20026;-69
2022/06/20 05:12:12;;;;;;;2.63;1.95;;;18.50;99.90;;;;;;6114243;23;20013;-69
2022/06/20 05:14:42;;;;;;;5.50;2.25;;;18.70;99.90;;;;;;6114285;23;20037;-69
2022/06/20 05:17:22;;;;;;;10.30;2.03;;;18.80;99.90;;;;;;6112426;23;20684;-70
2022/06/20 05:19:51;;;;;;;4.10;1.73;;;18.90;99.90;;;;;;6115427;23;20324;-70
2022/06/20 05:22:24;;;;;;;3.40;1.90;;;19.00;99.90;;;;;;6113864;23;20006;-70
2022/06/20 05:24:51;;;;;;;;;;;19.10;99.90;;;;;;6116600;23;20112;-69
2022/06/20 05:27:29;;;;;;;5.10;2.20;;;19.20;99.90;;;;;;6114050;23;19900;-70
2022/06/20 05:30:00;;;;;;;2.08;1.50;;;19.40;99.90;;;;;;6116878;23;20125;-71
2022/06/20 05:32:45;;;;;;;2.43;1.70;;;19.50;99.90;;;;;;6112661;23;20006;-69
2022/06/20 05:35:20;;;;;;;5.18;1.90;;;19.60;99.90;;;;;;6116319;23;20538;-69
2022/06/20 05:37:55;;;;;;;4.82;2.15;;;19.70;99.90;;;;;;6113965;23;20475;-69
2022/06/20 05:40:30;;;;;;;2.83;1.83;;;19.80;99.90;;;;;;6090686;23;20021;-69
2022/06/20 05:42:56;;;;;;;5.38;1.98;;;19.90;99.90;;;;;;6113147;23;20001;-70
2022/06/20 05:45:23;;;;;;;5.05;2.10;;;20.10;99.90;;;;;;6114497;23;20044;-68
2022/06/20 05:47:54;;;;;;;5.07;2.10;;;20.20;99.90;;;;;;6112077;23;20005;-65
2022/06/20 05:50:51;;;;;;;4.68;2.33;;;20.30;99.90;;;;;;6088506;23;20018;-69
2022/06/20 05:53:26;;;;;;;4.93;2.00;;;20.40;99.90;;;;;;6113887;23;20625;-68
2022/06/20 05:55:56;;;;;;;2.65;1.65;;;20.60;99.90;;;;;;6115537;23;20010;-68
2022/06/20 05:58:31;;;;;;;1.85;1.75;;;20.70;99.90;;;;;;6112322;23;20038;-68
2022/06/20 06:01:06;;;;;;;1.98;1.80;;;20.80;99.90;;;;;;6117598;23;20336;-68
2022/06/20 06:03:41;;;;;;;5.03;1.95;;;20.90;99.90;;;;;;6113304;23;20014;-70
2022/06/20 06:06:19;;;;;;;2.30;2.05;;;21.10;99.90;;;;;;6117764;23;20367;-70
2022/06/20 06:09:00;;;;;;;2.53;1.85;;;21.20;99.90;;;;;;6117039;23;20037;-70
2022/06/20 06:11:53;;;;;;;2.13;1.67;;;21.40;99.90;;;;;;6092530;23;20435;-70
2022/06/20 06:14:34;;;;;;;1.63;1.40;;;21.40;99.90;;;;;;6098532;23;20104;-70
2022/06/20 06:17:08;;;;;;;1.75;1.42;;;21.50;99.60;;;;;;6115215;23;20010;-70
2022/06/20 06:19:47;;;;;;;2.92;1.85;;;21.60;99.00;;;;;;6115052;23;20009;-70
2022/06/20 06:22:23;;;;;;;1.90;1.55;;;21.70;99.20;;;;;;6117862;23;20005;-68
2022/06/20 06:24:55;;;;;;;2.55;1.30;;;21.80;98.80;;;;;;6090661;23;20017;-68
2022/06/20 06:27:26;;;;;;;2.28;1.52;;;21.90;99.20;;;;;;6115227;23;20037;-68
2022/06/20 06:30:00;;;;;;;2.13;1.65;;;21.90;98.40;;;;;;6116022;23;20089;-68
2022/06/20 06:32:41;;;;;;;4.00;1.98;;;22.00;98.50;;;;;;6116545;23;20002;-68
2022/06/20 06:35:22;;;;;;;2.88;1.77;;;22.10;98.00;;;;;;6116251;23;20018;-69
2022/06/20 06:38:03;;;;;;;2.10;1.60;;;22.20;98.00;;;;;;6117023;23;20017;-69
2022/06/20 06:40:37;;;;;;;2.75;1.77;;;22.30;99.40;;;;;;6115219;23;20002;-70
2022/06/20 06:43:14;;;;;;;5.38;1.90;;;22.40;99.80;;;;;;6117391;23;20009;-70
2022/06/20 06:45:42;;;;;;;2.63;1.83;;;22.60;99.80;;;;;;6116420;23;20010;-70
2022/06/20 06:48:19;;;;;;;3.20;1.88;;;22.80;99.60;;;;;;6116046;23;20010;-70
2022/06/20 06:50:55;;;;;;;2.83;2.10;;;22.80;99.20;;;;;;6115952;23;20006;-70
2022/06/20 06:53:31;;;;;;;2.03;1.80;;;22.90;99.70;;;;;;6117032;23;20006;-70
2022/06/20 06:56:03;;;;;;;4.45;2.00;;;23.10;99.50;;;;;;6089848;23;20431;-70
2022/06/20 06:58:52;;;;;;;2.58;1.85;;;23.20;98.50;;;;;;6114528;23;20017;-70
2022/06/20 07:01:29;;;;;;;2.22;1.95;;;23.20;99.10;;;;;;6115891;23;20017;-70
2022/06/20 07:04:01;;;;;;;4.57;2.20;;;23.40;98.70;;;;;;6116429;23;20001;-70
2022/06/20 07:06:45;;;;;;;3.75;2.30;;;23.40;98.10;;;;;;6116666;23;20561;-71
2022/06/20 07:09:14;;;;;;;3.63;1.83;;;23.50;99.30;;;;;;6116844;23;20014;-71
2022/06/20 07:11:45;;;;;;;2.80;1.55;;;23.60;98.70;;;;;;6115532;23;20518;-71
2022/06/20 07:14:20;;;;;;;2.95;2.22;;;23.70;97.70;;;;;;6110102;23;20022;-71
2022/06/20 07:16:49;;;;;;;4.38;1.95;;;23.70;97.10;;;;;;6115155;23;20013;-71
2022/06/20 07:19:15;;;;;;;2.90;1.90;;;23.80;97.10;;;;;;6114813;23;20016;-69
2022/06/20 07:21:43;;;;;;;6.50;2.15;;;23.90;96.20;;;;;;6114370;23;20372;-68
2022/06/20 07:24:15;;;;;;;3.55;1.92;;;23.90;96.90;;;;;;6116120;23;20472;-68
2022/06/20 07:27:01;;;;;;;2.40;1.92;;;24.10;97.30;;;;;;6114366;23;20010;-68
2022/06/20 07:29:40;;;;;;;5.45;2.10;;;24.20;97.40;;;;;;6113728;23;20121;-69
2022/06/20 07:32:27;;;;;;;6.85;2.20;;;24.30;97.50;;;;;;6112536;23;20732;-68
2022/06/20 07:34:58;;;;;;;5.00;2.20;;;24.50;96.80;;;;;;6111981;23;20014;-69
2022/06/20 07:37:30;;;;;;;5.57;2.03;;;24.60;97.30;;;;;;6086761;23;20098;-71
2022/06/20 07:40:12;;;;;;;4.00;1.75;;;24.70;96.10;;;;;;6114433;23;20060;-71
2022/06/20 07:42:51;;;;;;;3.78;2.00;;;24.70;95.40;;;;;;6114378;23;20010;-71
2022/06/20 07:45:34;;;;;;;2.38;2.00;;;24.80;95.70;;;;;;6114231;23;20005;-71
2022/06/20 07:48:07;;;;;;;3.38;1.73;;;24.80;95.10;;;;;;6112124;23;20049;-70
2022/06/20 07:51:05;;;;;;;3.55;1.80;;;24.70;95.00;;;;;;6113602;23;20034;-72
2022/06/20 07:53:42;;;;;;;3.00;1.90;;;24.80;95.30;;;;;;6090486;23;20014;-71
2022/06/20 07:56:15;;;;;;;2.28;2.08;;;24.90;95.60;;;;;;6116486;23;20022;-69
2022/06/20 07:58:52;;;;;;;3.35;2.00;;;25.00;95.60;;;;;;6111243;23;20002;-69
2022/06/20 08:01:24;;;;;;;3.00;1.65;;;25.10;96.80;;;;;;6113580;23;20010;-69
2022/06/20 08:03:52;;;;;;;2.75;1.98;;;25.30;96.20;;;;;;6110823;23;20006;-69
2022/06/20 08:06:32;;;;;;;2.88;1.83;;;25.40;96.10;;;;;;6114169;23;20017;-68
2022/06/20 08:08:58;;;;;;;4.93;2.15;;;25.50;95.70;;;;;;6115520;23;20009;-69
2022/06/20 08:11:41;;;;;;;3.58;1.83;;;25.50;95.40;;;;;;6115573;23;20006;-69
2022/06/20 08:14:44;;;;;;;4.32;2.10;;;25.50;94.60;;;;;;6114715;23;22155;-69
2022/06/20 08:17:11;;;;;;;3.70;2.00;;;25.60;94.30;;;;;;6112923;23;20006;-71
2022/06/20 08:19:39;;;;;;;4.97;2.00;;;25.60;95.10;;;;;;6113960;23;20089;-71
2022/06/20 08:22:22;;;;;;;2.72;1.80;;;25.80;95.00;;;;;;6115679;23;20371;-71
2022/06/20 08:24:53;;;;;;;5.07;1.92;;;26.00;94.30;;;;;;6114640;23;20632;-71
2022/06/20 08:27:43;;;;;;;4.53;2.13;;;26.00;93.60;;;;;;6114308;23;19998;-71
2022/06/20 08:30:19;;;;;;;3.63;1.95;;;26.00;95.00;;;;;;6115807;23;20002;-71
2022/06/20 08:32:55;;;;;;;4.05;1.58;;;26.10;94.80;;;;;;6113405;23;20002;-72
2022/06/20 08:35:31;;;;;;;2.05;1.85;;;26.20;95.10;;;;;;6108734;23;20516;-69
2022/06/20 08:38:12;;;;;;;2.85;1.85;;;26.30;96.00;;;;;;6113987;23;20020;-69
2022/06/20 08:40:40;;;;;;;4.03;2.10;;;26.40;94.70;;;;;;6113562;23;20057;-71
2022/06/20 08:43:24;;;;;;;4.60;2.80;;;26.50;92.30;;;;;;6114397;23;20012;-69
2022/06/20 08:45:50;;;;;;;2.13;1.90;;;26.50;90.50;;;;;;6088095;23;20009;-69
2022/06/20 08:48:41;;;;;;;4.93;2.35;;;26.70;90.20;;;;;;6109915;23;20028;-69
2022/06/20 08:51:27;;;;;;;8.30;2.08;;;26.70;86.70;;;;;;6113850;23;20347;-71
2022/06/20 08:54:14;;;;;;;3.85;2.33;;;26.80;88.10;;;;;;6114219;23;20026;-72
2022/06/20 08:57:17;;;;;;;2.22;2.03;;;26.80;87.90;;;;;;6113551;23;20038;-71
2022/06/20 08:59:50;;;;;;;2.45;2.17;;;26.90;86.20;;;;;;6117359;23;20068;-72
2022/06/20 09:02:54;;;;;;;2.75;2.35;;;27.00;86.70;;;;;;6116257;23;20005;-72
2022/06/20 09:05:35;;;;;;;2.42;2.22;;;27.20;85.30;;;;;;6116684;23;20006;-73
2022/06/20 09:08:25;;;;;;;3.05;2.35;;;27.20;84.40;;;;;;6117363;23;20533;-72
2022/06/20 09:11:33;;;;;;;3.00;2.55;;;27.20;85.00;;;;;;6116931;23;20005;-72
2022/06/20 09:14:16;;;;;;;2.40;2.20;;;27.30;85.90;;;;;;6083227;23;20014;-70
2022/06/20 09:16:54;;;;;;;3.53;2.47;;;27.40;82.80;;;;;;6117207;23;20006;-70
2022/06/20 09:19:57;;;;;;;3.88;2.17;;;27.40;82.40;;;;;;6113371;23;20383;-69
2022/06/20 09:22:49;;;;;;;2.50;2.30;;;27.40;83.90;;;;;;6115826;23;20009;-71
2022/06/20 09:25:32;;;;;;;6.20;2.70;;;27.50;82.90;;;;;;6116228;23;20006;-71
2022/06/20 09:28:23;;;;;;;5.10;2.30;;;27.50;81.10;;;;;;6115570;23;20009;-72
2022/06/20 09:30:49;;;;;;;3.17;2.50;;;27.50;79.70;;;;;;6111822;23;20006;-70
2022/06/20 09:33:32;;;;;;;2.75;2.55;;;27.60;82.00;;;;;;6112963;23;20068;-71
2022/06/20 09:36:26;;;;;;;5.25;2.72;;;27.60;82.90;;;;;;6090473;23;20025;-69
2022/06/20 09:39:10;;;;;;;6.20;2.83;;;27.70;80.90;;;;;;6118433;23;20009;-69
2022/06/20 09:41:52;;;;;;;3.50;3.17;;;27.70;81.20;;;;;;6116891;23;20323;-70
2022/06/20 09:45:02;;;;;;;6.07;2.72;;;27.70;81.00;;;;;;6118045;23;20010;-70
2022/06/20 09:47:38;;;;;;;3.75;2.70;;;27.70;81.80;;;;;;5996653;23;20087;-70
2022/06/20 09:50:20;;;;;;;4.38;2.70;;;27.80;81.70;;;;;;6108378;23;20426;-68
2022/06/20 09:52:58;;;;;;;3.60;2.92;;;27.80;79.90;;;;;;6116856;23;20414;-73
2022/06/20 09:55:37;;;;;;;4.30;2.95;;;27.80;81.20;;;;;;6116595;23;20527;-72
2022/06/20 09:58:18;;;;;;;4.85;2.67;;;27.90;81.40;;;;;;6115665;23;20009;-72
2022/06/20 10:01:06;;;;;;;5.65;2.78;;;27.90;78.80;;;;;;6117724;23;20006;-72
2022/06/20 10:03:53;;;;;;;4.32;2.80;;;27.90;80.30;;;;;;6116120;23;20040;-71
2022/06/20 10:06:31;;;;;;;4.55;2.88;;;28.00;79.80;;;;;;6116507;23;20326;-71
2022/06/20 10:09:14;;;;;;;5.75;2.97;;;28.00;79.70;;;;;;6115355;23;19997;-71
2022/06/20 10:12:02;;;;;;;5.70;2.72;;;28.10;78.20;;;;;;6115721;23;20006;-71
2022/06/20 10:14:54;;;;;;;5.40;2.80;;;28.10;79.90;;;;;;6115479;23;20406;-70
2022/06/20 10:17:50;;;;;;;3.15;2.95;;;28.10;77.40;;;;;;6098046;23;20029;-72
2022/06/20 10:20:44;;;;;;;5.97;3.08;;;28.10;76.40;;;;;;6116442;23;20088;-71
2022/06/20 10:23:52;;;;;;;3.75;2.92;;;28.10;76.00;;;;;;6117085;23;20021;-68
2022/06/20 10:26:31;;;;;;;5.75;2.75;;;28.20;79.80;;;;;;6116741;23;20066;-70
2022/06/20 10:29:35;;;;;;;3.95;3.10;;;28.20;77.30;;;;;;6117945;23;20010;-71
2022/06/20 10:32:06;;;;;;;5.32;2.65;;;28.30;76.20;;;;;;6116605;23;20005;-73
2022/06/20 10:35:00;;;;;;;6.25;3.22;;;28.30;76.40;;;;;;6115711;23;20499;-73
2022/06/20 10:37:57;;;;;;;3.97;2.65;;;28.40;75.20;;;;;;6115979;23;20387;-71
2022/06/20 10:40:44;;;;;;;5.22;3.03;;;28.50;75.10;;;;;;6113216;23;20021;-71
2022/06/20 10:43:30;;;;;;;6.32;2.67;;;28.50;74.10;;;;;;6116277;23;20012;-73
2022/06/20 10:46:16;;;;;;;5.70;2.88;;;28.50;73.40;;;;;;6115662;23;20012;-73
2022/06/20 10:48:56;;;;;;;5.13;3.25;;;28.50;73.20;;;;;;6114946;23;20033;-71
2022/06/20 10:51:28;;;;;;;3.35;2.88;;;28.50;75.70;;;;;;6116007;23;20002;-70
2022/06/20 10:54:02;;;;;;;;;;;28.50;73.20;;;;;;6117309;23;20013;-71
2022/06/20 10:56:41;;;;;;;5.65;3.17;;;28.50;74.50;;;;;;6088545;23;19912;-70
2022/06/20 10:59:09;;;;;;;3.20;2.90;;;28.50;73.60;;;;;;6116634;23;20006;-71
2022/06/20 11:01:52;;;;;;;5.38;2.90;;;28.50;74.30;;;;;;6116410;23;20006;-71
2022/06/20 11:04:56;;;;;;;6.20;2.53;;;28.50;71.90;;;;;;6115947;23;20081;-69
2022/06/20 11:07:43;;;;;;;5.07;2.90;;;28.50;73.80;;;;;;6051737;23;20343;-72
2022/06/20 11:10:30;;;;;;;5.40;2.60;;;28.60;74.80;;;;;;6117471;23;20097;-75
2022/06/20 11:12:55;;;;;;;4.03;3.00;;;28.60;72.50;;;;;;6113459;23;20235;-73
2022/06/20 11:15:27;;;;;;;6.05;2.90;;;28.60;75.30;;;;;;6116581;23;20439;-71
2022/06/20 11:18:17;;;;;;;8.52;3.28;;;28.80;74.30;;;;;;6113463;23;20068;-73
2022/06/20 11:20:45;;;;;;;7.43;3.05;;;28.90;73.10;;;;;;6114750;23;20104;-75
2022/06/20 11:23:16;;;;;;;6.88;3.22;;;29.00;70.70;;;;;;6116819;23;20010;-72
2022/06/20 11:25:42;;;;;;;6.30;3.57;;;29.00;73.10;;;;;;6116945;23;20008;-73
2022/06/20 11:28:38;;;;;;;4.95;2.90;;;29.10;74.70;;;;;;6113048;23;20041;-70
2022/06/20 11:31:10;;;;;;;6.05;3.03;;;29.10;72.80;;;;;;6110820;23;20065;-69
2022/06/20 11:34:06;;;;;;;4.28;3.10;;;29.10;72.20;;;;;;6108520;23;20021;-70
2022/06/20 11:36:44;;;;;;;4.20;2.97;;;29.10;75.30;;;;;;6111043;23;20010;-70
2022/06/20 11:39:12;;;;;;;4.60;3.42;;;29.30;72.30;;;;;;6112976;23;20034;-71
2022/06/20 11:41:50;;;;;;;5.03;3.05;;;29.30;72.20;;;;;;6113040;23;20076;-71
2022/06/20 11:44:19;;;;;;;4.28;2.92;;;29.20;71.60;;;;;;6112935;23;20002;-69
2022/06/20 11:47:02;;;;;;;8.27;3.53;;;29.20;71.30;;;;;;6113485;23;20733;-69
2022/06/20 11:50:13;;;;;;;5.65;3.35;;;29.30;71.00;;;;;;6105069;23;20006;-71
2022/06/20 11:53:19;;;;;;;4.47;3.40;;;29.40;70.60;;;;;;6107287;23;20017;-68
2022/06/20 11:55:54;;;;;;;4.13;2.78;;;29.50;70.90;;;;;;6094437;23;20014;-69
2022/06/20 11:58:56;;;;;;;4.13;2.90;;;29.50;70.10;;;;;;6113711;23;20006;-70
2022/06/20 12:01:26;;;;;;;;;;;29.60;71.70;;;;;;6108693;23;20017;-69
2022/06/20 12:04:03;;;;;;;4.72;3.30;;;29.60;71.20;;;;;;6113677;23;20442;-69
2022/06/20 12:06:45;;;;;;;6.13;2.80;;;29.70;74.40;;;;;;6112175;23;19998;-68
2022/06/20 12:09:30;;;;;;;;;;;29.90;71.20;;;;;;6089500;23;20014;-71
2022/06/20 13:33:53;;;;;;;1.63;1.38;;;30.80;56.00;;;;;;6105363;23;20060;-71
2022/06/20 13:36:28;;;;;;;3.70;1.88;;;30.80;55.80;;;;;;6110947;23;20014;-70
2022/06/20 13:39:11;;;;;;;2.33;1.55;;;30.90;55.80;;;;;;6111791;23;20002;-71
2022/06/20 13:42:08;;;;;;;3.40;1.60;;;30.90;54.90;;;;;;6084836;23;20509;-70
2022/06/20 13:44:54;;;;;;;1.98;1.73;;;31.00;54.50;;;;;;6112250;23;20010;-71
2022/06/20 13:47:28;;;;;;;3.45;1.63;;;31.00;54.90;;;;;;6109488;23;20012;-71
2022/06/20 13:50:22;;;;;;;1.70;1.52;;;31.00;54.80;;;;;;6111139;23;20006;-71
2022/06/20 13:53:06;;;;;;;2.10;1.58;;;31.10;54.30;;;;;;6113214;23;20002;-70
2022/06/20 13:55:49;;;;;;;4.90;1.92;;;31.20;54.30;;;;;;6110878;23;20018;-73
2022/06/20 13:58:45;;;;;;;2.15;1.75;;;31.20;56.20;;;;;;6112109;23;20002;-72
2022/06/20 14:01:15;;;;;;;2.28;1.75;;;31.30;54.30;;;;;;6111862;23;20014;-70
2022/06/20 14:03:49;;;;;;;2.50;2.20;;;31.20;53.00;;;;;;6110126;23;20010;-70
2022/06/20 14:06:17;;;;;;;6.13;1.98;;;31.20;56.30;;;;;;6112036;23;20005;-69
2022/06/20 14:08:53;;;;;;;6.28;2.10;;;31.30;55.80;;;;;;6110716;23;20001;-70
2022/06/20 14:11:43;;;;;;;2.15;1.95;;;31.30;55.60;;;;;;6110868;23;20002;-72
2022/06/20 14:14:29;;;;;;;6.18;2.08;;;31.30;56.50;;;;;;6111846;23;20053;-70
2022/06/20 14:17:30;;;;;;;4.78;1.95;;;31.40;57.20;;;;;;6111474;23;20006;-73
2022/06/20 14:20:09;;;;;;;2.35;1.92;;;31.30;55.00;;;;;;6023850;23;20018;-70
2022/06/20 14:22:45;;;;;;;11.98;2.28;;;31.20;57.90;;;;;;6112388;23;20006;-74
2022/06/20 14:25:45;;;;;;;3.55;1.77;;;31.20;58.30;;;;;;6110808;23;20033;-70
2022/06/20 14:28:21;;;;;;;4.13;1.55;;;31.20;56.20;;;;;;6090815;23;20541;-71
2022/06/20 14:30:52;;;;;;;5.90;1.60;;;31.20;57.40;;;;;;6113928;23;20012;-72
2022/06/20 14:33:24;;;;;;;5.00;1.73;;;31.10;56.30;;;;;;6111423;23;20026;-72
2022/06/20 14:36:17;;;;;;;5.85;1.98;;;31.10;55.10;;;;;;6115736;23;20021;-73
2022/06/20 14:38:49;;;;;;;5.63;2.08;;;31.00;57.60;;;;;;6114824;23;20404;-72
2022/06/20 14:41:39;;;;;;;4.15;2.10;;;30.90;56.70;;;;;;6112714;23;20057;-71
2022/06/20 14:44:44;;;;;;;2.97;2.13;;;30.80;56.80;;;;;;6114033;23;20335;-70
2022/06/20 14:47:21;;;;;;;6.80;1.88;;;30.60;56.50;;;;;;6066071;23;20407;-70
2022/06/20 14:50:14;;;;;;;3.35;1.55;;;30.60;56.40;;;;;;6108262;23;20002;-69
2022/06/20 14:52:50;;;;;;;3.35;2.05;;;30.40;56.80;;;;;;6111454;23;20034;-72
2022/06/20 14:55:34;;;;;;;3.85;2.13;;;30.30;55.90;;;;;;6110041;23;20093;-73
2022/06/20 14:58:16;;;;;;;3.55;1.67;;;30.20;56.50;;;;;;6109531;23;20749;-70
2022/06/20 15:01:13;;;;;;;4.93;1.95;;;30.30;58.40;;;;;;6112180;23;20561;-70
2022/06/20 15:04:01;;;;;;;7.38;1.95;;;30.30;62.50;;;;;;6112043;23;20008;-75
2022/06/20 15:06:34;;;;;;;2.65;2.00;;;30.20;59.90;;;;;;6109172;23;20006;-73
2022/06/20 15:09:22;;;;;;;4.50;1.98;;;30.20;60.10;;;;;;6114253;23;20005;-70
2022/06/20 15:12:00;;;;;;;2.50;1.58;;;30.20;63.10;;;;;;6110921;23;20009;-72
2022/06/20 15:14:41;;;;;;;6.97;1.75;;;30.10;64.70;;;;;;6113535;23;20006;-72
2022/06/20 15:17:14;;;;;;;5.68;2.40;;;30.10;64.50;;;;;;6108930;23;20021;-71